Smit Barbados — MSDU8 — position and weather

sailwx.info

Track history (hours):
 
Tides and Currents Weather Stations Pressure Air Temp Water Temp Dewpoint Dewpoint Depression Visibility Wind Speed Wind Dir Waves Ship Positions

Smit Barbados

Last reported at 2017-Aug-21 15:30 UTC. Time now 2017-Aug-21 15:46 UTC.
Position N 53°26' W 002°60'.

Length 30 m; draft 4.8 m.

Type: Tug. MMSI: 235055303.

Date/timePositionNaut miles runAvg speedWind from/ knotsBaromVisibWave heightAir tempDewpointWater temp
2017-Aug-21 15:30N 53°26' W 002°60'0 0.0
2017-Aug-21 15:01N 53°26' W 002°60'0 0.0
2017-Aug-21 14:30N 53°26' W 002°60'0 0.0
2017-Aug-21 14:01N 53°26' W 002°60'0 0.0
2017-Aug-21 13:30N 53°26' W 002°60'0 0.0
2017-Aug-21 13:00N 53°26' W 002°60'0 0.0
2017-Aug-21 12:30N 53°26' W 002°60'0 0.0
2017-Aug-21 12:00N 53°26' W 002°60'1 1.4
2017-Aug-21 11:30N 53°27' W 003°00'1 1.1
2017-Aug-21 11:00N 53°27' W 003°01'3 5.3
2017-Aug-21 10:30N 53°24' W 003°00'510.3
2017-Aug-21 10:00N 53°19' W 002°57'0 0.2
2017-Aug-21 09:30N 53°19' W 002°57'0 0.2
2017-Aug-21 09:00N 53°19' W 002°57'5 9.7
2017-Aug-21 08:30N 53°24' W 003°00'3 6.5
2017-Aug-21 08:00N 53°27' W 003°01'0 0.6
2017-Aug-21 07:30N 53°27' W 003°01'0 0.0
2017-Aug-21 07:00N 53°27' W 003°01'0 0.0
2017-Aug-21 06:30N 53°27' W 003°01'0 0.0
2017-Aug-21 06:00N 53°27' W 003°01'0 0.0
2017-Aug-21 05:30N 53°27' W 003°01'0 0.0
2017-Aug-21 05:00N 53°27' W 003°01'0 0.0
2017-Aug-21 04:30N 53°27' W 003°01'0 0.0
2017-Aug-21 04:00N 53°27' W 003°01'0 0.0
2017-Aug-21 03:30N 53°27' W 003°01'0 0.0
2017-Aug-21 03:00N 53°27' W 003°01'0 0.0
2017-Aug-21 02:30N 53°27' W 003°01'0 0.0
2017-Aug-21 02:00N 53°27' W 003°01'0 0.0
2017-Aug-21 01:30N 53°27' W 003°01'0 0.4
2017-Aug-21 01:00N 53°27' W 003°01'0 1.0
2017-Aug-21 00:30N 53°28' W 003°02'0 0.2
2017-Aug-21 00:00N 53°28' W 003°01'0 0.4
2017-Aug-20 23:30N 53°27' W 003°01'0 0.0
2017-Aug-20 23:00N 53°27' W 003°01'0 0.0
2017-Aug-20 22:30N 53°27' W 003°01'0 0.1
2017-Aug-20 22:00N 53°28' W 003°01'1 1.1
2017-Aug-20 21:30N 53°27' W 003°01'0 0.4
2017-Aug-20 21:00N 53°27' W 003°01'1 2.1
2017-Aug-20 20:30N 53°27' W 003°03'1 1.8
2017-Aug-20 20:00N 53°27' W 003°01'0 0.4
2017-Aug-20 19:30N 53°27' W 003°01'0 0.0
2017-Aug-20 19:00N 53°27' W 003°01'0 0.5
2017-Aug-20 18:30N 53°27' W 003°01'0 0.4
2017-Aug-20 18:00N 53°27' W 003°01'1 2.6
2017-Aug-20 17:30N 53°26' W 003°00'0 0.1
2017-Aug-20 17:00N 53°26' W 002°60'0 0.0
2017-Aug-20 16:30N 53°26' W 002°60'0 0.0
2017-Aug-20 16:00N 53°26' W 002°60'0 0.0
2017-Aug-20 15:30N 53°26' W 002°60'0 0.0
2017-Aug-20 15:00N 53°26' W 002°60'0 0.0
2017-Aug-20 14:30N 53°26' W 002°60'0 0.0
2017-Aug-20 14:00N 53°26' W 002°60'0 0.0
2017-Aug-20 13:30N 53°26' W 002°60'0 0.0
2017-Aug-20 13:00N 53°26' W 002°60'0 0.0
2017-Aug-20 12:30N 53°26' W 002°60'0 0.0
2017-Aug-20 12:00N 53°26' W 002°60'0 0.0
2017-Aug-20 11:30N 53°26' W 002°60'0 0.0
2017-Aug-20 11:00N 53°26' W 002°60'0 0.0
2017-Aug-20 10:30N 53°26' W 002°60'0 0.0
2017-Aug-20 10:00N 53°26' W 002°60'1 2.2
2017-Aug-20 09:31N 53°27' W 003°01'0 0.5
2017-Aug-20 09:00N 53°27' W 003°01'0 0.4
2017-Aug-20 08:30N 53°26' W 003°01'0 0.3
2017-Aug-20 08:00N 53°26' W 003°01'1 2.8
2017-Aug-20 07:30N 53°27' W 003°02'0 0.5
2017-Aug-20 07:00N 53°27' W 003°02'1 1.3
2017-Aug-20 06:30N 53°27' W 003°01'0 0.7
2017-Aug-20 06:01N 53°27' W 003°01'0 0.7
2017-Aug-20 05:30N 53°27' W 003°01'1 2.6
2017-Aug-20 05:00N 53°26' W 002°60'0 0.0
2017-Aug-20 04:30N 53°26' W 002°60'0 0.0
2017-Aug-20 04:00N 53°26' W 002°60'0 0.0
2017-Aug-20 03:30N 53°26' W 002°60'0 0.0
2017-Aug-20 03:00N 53°26' W 002°60'0 0.0
2017-Aug-20 02:30N 53°26' W 002°60'0 0.0
2017-Aug-20 02:00N 53°26' W 002°60'0 0.0
2017-Aug-20 01:30N 53°26' W 002°60'0 0.0
2017-Aug-20 01:00N 53°26' W 002°60'0 0.0
2017-Aug-20 00:30N 53°26' W 002°60'0 0.0
2017-Aug-20 00:00N 53°26' W 002°60'0 0.0
2017-Aug-19 23:30N 53°26' W 002°60'0 0.0
2017-Aug-19 23:00N 53°26' W 002°60'0 0.0
2017-Aug-19 22:30N 53°26' W 002°60'0 0.0
2017-Aug-19 22:00N 53°26' W 002°60'0 0.0
2017-Aug-19 21:30N 53°26' W 002°60'0 0.0
2017-Aug-19 20:59N 53°26' W 002°60'1 3.0
2017-Aug-19 20:30N 53°27' W 003°01'0 0.3
2017-Aug-19 20:00N 53°27' W 003°01'0 0.2
2017-Aug-19 19:30N 53°27' W 003°01'0 0.6
2017-Aug-19 19:00N 53°27' W 003°01'0 0.3
2017-Aug-19 18:31N 53°27' W 003°01'0 0.5
2017-Aug-19 18:00N 53°27' W 003°01'1 3.0
2017-Aug-19 17:30N 53°26' W 003°00'0 0.2
2017-Aug-19 17:00N 53°26' W 002°60'0 0.0
2017-Aug-19 16:30N 53°26' W 002°60'0 0.0
2017-Aug-19 16:00N 53°26' W 002°60'0 0.0
2017-Aug-19 15:30N 53°26' W 002°60'0 0.0
2017-Aug-19 15:00N 53°26' W 002°60'0 0.0
2017-Aug-19 14:00N 53°26' W 002°60'0 0.0
2017-Aug-19 13:30N 53°26' W 002°60'0 0.0
2017-Aug-19 13:00N 53°26' W 002°60'0 0.0
2017-Aug-19 12:30N 53°26' W 002°60'0 0.0
2017-Aug-19 12:00N 53°26' W 002°60'0 0.0
2017-Aug-19 11:30N 53°26' W 002°60'0 0.0
2017-Aug-19 11:00N 53°26' W 002°60'0 0.0
2017-Aug-19 10:30N 53°26' W 002°60'0 0.0
2017-Aug-19 10:00N 53°26' W 002°60'0 0.0
2017-Aug-19 09:30N 53°26' W 002°60'0 0.0
2017-Aug-19 09:00N 53°26' W 002°60'0 0.0
2017-Aug-19 08:30N 53°26' W 002°60'0 0.0
2017-Aug-19 08:00N 53°26' W 002°60'0 0.0
2017-Aug-19 07:30N 53°26' W 002°60'0 0.0
2017-Aug-19 07:00N 53°26' W 002°60'0 0.0
2017-Aug-19 06:30N 53°26' W 002°60'0 0.0
2017-Aug-19 06:00N 53°26' W 002°60'1 2.9
2017-Aug-19 05:30N 53°27' W 003°01'0 1.0
2017-Aug-19 05:00N 53°28' W 003°01'0 0.5
2017-Aug-19 04:30N 53°28' W 003°01'0 0.0
2017-Aug-19 04:00N 53°28' W 003°01'0 0.0
2017-Aug-19 03:30N 53°28' W 003°01'2 3.9
2017-Aug-19 03:00N 53°26' W 003°00'0 0.3
2017-Aug-19 02:30N 53°26' W 002°60'0 0.0
2017-Aug-19 02:00N 53°26' W 002°60'0 0.0
2017-Aug-19 01:30N 53°26' W 002°60'0 0.0
2017-Aug-19 01:00N 53°26' W 002°60'0 0.0
2017-Aug-19 00:30N 53°26' W 002°60'0 0.0
2017-Aug-19 00:00N 53°26' W 002°60'0 0.0
2017-Aug-18 23:30N 53°26' W 002°60'0 0.0
2017-Aug-18 23:00N 53°26' W 002°60'0 0.0
2017-Aug-18 22:30N 53°26' W 002°60'0 0.0
2017-Aug-18 22:00N 53°26' W 002°60'0 0.0
2017-Aug-18 21:30N 53°26' W 002°60'0 0.0
2017-Aug-18 21:00N 53°26' W 002°60'0 0.0
2017-Aug-18 20:30N 53°26' W 002°60'0 0.0
2017-Aug-18 20:00N 53°26' W 002°60'0 0.0
2017-Aug-18 19:30N 53°26' W 002°60'1 2.7
2017-Aug-18 19:00N 53°27' W 003°01'0 0.1
2017-Aug-18 18:30N 53°27' W 003°01'0 0.2
2017-Aug-18 18:01N 53°27' W 003°01'1 1.1
2017-Aug-18 17:31N 53°26' W 003°01'0 0.5
2017-Aug-18 17:00N 53°27' W 003°00'1 1.5
2017-Aug-18 16:30N 53°26' W 002°60'0 0.0
2017-Aug-18 16:00N 53°26' W 002°60'0 0.0
2017-Aug-18 15:30N 53°26' W 002°60'0 0.0
2017-Aug-18 15:00N 53°26' W 002°60'0 0.0
2017-Aug-18 14:00N 53°26' W 002°60'0 0.0
2017-Aug-18 13:30N 53°26' W 002°60'0 0.0
2017-Aug-18 13:00N 53°26' W 002°60'0 0.0
2017-Aug-18 12:30N 53°26' W 002°60'0 0.0
2017-Aug-18 11:59N 53°26' W 002°60'0 0.0
2017-Aug-18 11:30N 53°26' W 002°60'1 3.0
2017-Aug-18 11:01N 53°27' W 003°01'0 0.8
2017-Aug-18 10:30N 53°27' W 003°01'0 0.9
2017-Aug-18 10:00N 53°27' W 003°00'1 1.5
2017-Aug-18 09:31N 53°26' W 003°00'0 0.4
2017-Aug-18 09:00N 53°26' W 002°60'0 0.0
2017-Aug-18 08:30N 53°26' W 002°60'0 0.0
2017-Aug-18 08:00N 53°26' W 002°60'0 0.0
2017-Aug-18 07:30N 53°26' W 002°60'0 0.0
2017-Aug-18 06:59N 53°26' W 002°60'0 0.0
2017-Aug-18 06:30N 53°26' W 002°60'0 0.0
2017-Aug-18 06:00N 53°26' W 002°60'0 0.0
2017-Aug-18 05:31N 53°26' W 002°60'0 0.0
2017-Aug-18 05:00N 53°26' W 002°60'0 0.0
2017-Aug-18 04:30N 53°26' W 002°60'0 0.0
2017-Aug-18 04:00N 53°26' W 002°60'0 0.0
2017-Aug-18 03:30N 53°26' W 002°60'0 0.0
2017-Aug-18 03:00N 53°26' W 002°60'0 0.0
2017-Aug-18 02:30N 53°26' W 002°60'0 0.0
2017-Aug-18 02:00N 53°26' W 002°60'0 0.0
2017-Aug-18 01:30N 53°26' W 002°60'0 0.0
2017-Aug-18 01:00N 53°26' W 002°60'0 0.0
2017-Aug-18 00:30N 53°26' W 002°60'0 0.0
2017-Aug-18 00:00N 53°26' W 002°60'0 0.0
2017-Aug-17 23:30N 53°26' W 002°60'0 0.0
2017-Aug-17 23:00N 53°26' W 002°60'0 0.0
2017-Aug-17 22:30N 53°26' W 002°60'0 0.0
2017-Aug-17 22:00N 53°26' W 002°60'0 0.0
2017-Aug-17 21:30N 53°26' W 002°60'0 0.0
2017-Aug-17 21:00N 53°26' W 002°60'0 0.0
2017-Aug-17 20:30N 53°26' W 002°60'0 0.0
2017-Aug-17 20:01N 53°26' W 002°60'0 0.0
2017-Aug-17 19:30N 53°26' W 002°60'0 0.0
2017-Aug-17 19:00N 53°26' W 002°60'0 0.0
2017-Aug-17 18:30N 53°26' W 002°60'0 0.0
2017-Aug-17 18:01N 53°26' W 002°60'0 0.0
2017-Aug-17 17:30N 53°26' W 002°60'0 0.0
2017-Aug-17 17:00N 53°26' W 002°60'0 0.0
2017-Aug-17 16:30N 53°26' W 002°60'0 0.0
2017-Aug-17 16:00N 53°26' W 002°60'0 0.0
2017-Aug-17 15:30N 53°26' W 002°60'0 0.0
2017-Aug-17 15:00N 53°26' W 002°60'0 0.0
2017-Aug-17 14:30N 53°26' W 002°60'0 0.0
2017-Aug-17 14:00N 53°26' W 002°60'0 0.0
2017-Aug-17 13:30N 53°26' W 002°60'0 0.0
2017-Aug-17 13:00N 53°26' W 002°60'0 0.0
2017-Aug-17 12:30N 53°26' W 002°60'0 0.0
2017-Aug-17 12:00N 53°26' W 002°60'0 0.0
2017-Aug-17 11:30N 53°26' W 002°60'0 0.0
2017-Aug-17 11:00N 53°26' W 002°60'0 0.0
2017-Aug-17 10:30N 53°26' W 002°60'0 0.0
2017-Aug-17 10:00N 53°26' W 002°60'0 0.0
2017-Aug-17 09:30N 53°26' W 002°60'0 0.0
2017-Aug-17 09:00N 53°26' W 002°60'0 0.0
2017-Aug-17 08:30N 53°26' W 002°60'0 0.0
2017-Aug-17 08:00N 53°26' W 002°60'0 0.0
2017-Aug-17 07:30N 53°26' W 002°60'0 0.0
2017-Aug-17 07:00N 53°26' W 002°60'0 0.0
2017-Aug-17 06:30N 53°26' W 002°60'0 0.0
2017-Aug-17 06:01N 53°26' W 002°60'0 0.0
2017-Aug-17 05:30N 53°26' W 002°60'0 0.0
2017-Aug-17 05:00N 53°26' W 002°60'0 0.0
2017-Aug-17 04:30N 53°26' W 002°60'0 0.0
2017-Aug-17 04:00N 53°26' W 002°60'0 0.0
2017-Aug-17 03:30N 53°26' W 002°60'0 0.0
2017-Aug-17 03:00N 53°26' W 002°60'0 0.0
2017-Aug-17 02:30N 53°26' W 002°60'0 0.0
2017-Aug-17 02:00N 53°26' W 002°60'0 0.0
2017-Aug-17 01:30N 53°26' W 002°60'0 0.0
2017-Aug-17 01:00N 53°26' W 002°60'0 0.0
2017-Aug-17 00:30N 53°26' W 002°60'0 0.0
2017-Aug-17 00:00N 53°26' W 002°60'0 0.0
2017-Aug-16 23:30N 53°26' W 002°60'0 0.0
2017-Aug-16 23:01N 53°26' W 002°60'0 0.0
2017-Aug-16 22:30N 53°26' W 002°60'0 0.0
2017-Aug-16 22:00N 53°26' W 002°60'0 0.0
2017-Aug-16 21:31N 53°26' W 002°60'0 0.0
2017-Aug-16 21:00N 53°26' W 002°60'0 0.0
2017-Aug-16 20:30N 53°26' W 002°60'0 0.0
2017-Aug-16 20:00N 53°26' W 002°60'0 0.0
2017-Aug-16 19:31N 53°26' W 002°60'0 0.0
2017-Aug-16 19:00N 53°26' W 002°60'0 0.0
2017-Aug-16 18:30N 53°26' W 002°60'0 0.0
2017-Aug-16 18:00N 53°26' W 002°60'0 0.0
2017-Aug-16 17:30N 53°26' W 002°60'0 0.0
2017-Aug-16 17:00N 53°26' W 002°60'0 0.0
2017-Aug-16 16:30N 53°26' W 002°60'0 0.0
2017-Aug-16 16:00N 53°26' W 002°60'0 0.0
2017-Aug-16 15:30N 53°26' W 002°60'0 0.0
2017-Aug-16 15:01N 53°26' W 002°60'0 0.0
2017-Aug-16 14:30N 53°26' W 002°60'0 0.0
2017-Aug-16 14:00N 53°26' W 002°60'0 0.0
2017-Aug-16 13:30N 53°26' W 002°60'0 0.0
2017-Aug-16 13:00N 53°26' W 002°60'0 0.0
2017-Aug-16 12:30N 53°26' W 002°60'0 0.0
2017-Aug-16 12:00N 53°26' W 002°60'0 0.0
2017-Aug-16 11:30N 53°26' W 002°60'0 0.0
2017-Aug-16 11:00N 53°26' W 002°60'0 0.0
2017-Aug-16 10:30N 53°26' W 002°60'0 0.0
2017-Aug-16 10:00N 53°26' W 002°60'0 0.0
2017-Aug-16 09:30N 53°26' W 002°60'0 0.0
2017-Aug-16 09:00N 53°26' W 002°60'0 0.0
2017-Aug-16 08:30N 53°26' W 002°60'0 0.0
2017-Aug-16 08:00N 53°26' W 002°60'0 0.0
2017-Aug-16 07:30N 53°26' W 002°60'0 0.0
2017-Aug-16 07:00N 53°26' W 002°60'0 0.0
2017-Aug-16 06:30N 53°26' W 002°60'0 0.0
2017-Aug-16 06:00N 53°26' W 002°60'0 0.0
2017-Aug-16 05:30N 53°26' W 002°60'0 0.0
2017-Aug-16 05:00N 53°26' W 002°60'0 0.0
2017-Aug-16 04:30N 53°26' W 002°60'0 0.0
2017-Aug-16 04:00N 53°26' W 002°60'0 0.0
2017-Aug-16 03:30N 53°26' W 002°60'0 0.0
2017-Aug-16 03:00N 53°26' W 002°60'0 0.0
2017-Aug-16 02:30N 53°26' W 002°60'0 0.0
2017-Aug-16 02:00N 53°26' W 002°60'0 0.0
2017-Aug-16 01:30N 53°26' W 002°60'0 0.0
2017-Aug-16 01:00N 53°26' W 002°60'0 0.0
2017-Aug-16 00:30N 53°26' W 002°60'0 0.0
2017-Aug-16 00:00N 53°26' W 002°60'0 0.0
2017-Aug-15 23:30N 53°26' W 002°60'0 0.0
2017-Aug-15 23:00N 53°26' W 002°60'0 0.0
2017-Aug-15 22:30N 53°26' W 002°60'0 0.0
2017-Aug-15 22:00N 53°26' W 002°60'0 0.0
2017-Aug-15 21:30N 53°26' W 002°60'0 0.0
2017-Aug-15 21:00N 53°26' W 002°60'0 0.0
2017-Aug-15 20:30N 53°26' W 002°60'0 0.0
2017-Aug-15 20:00N 53°26' W 002°60'1 1.4
2017-Aug-15 19:30N 53°26' W 003°01'0 0.6
2017-Aug-15 19:00N 53°26' W 003°01'4 7.9
2017-Aug-15 18:30N 53°23' W 002°59'3 6.6
2017-Aug-15 18:00N 53°19' W 002°57'0 0.3
2017-Aug-15 17:29N 53°19' W 002°57'0 0.0
2017-Aug-15 17:00N 53°19' W 002°57'0 0.4
2017-Aug-15 16:30N 53°19' W 002°57'0 0.7
2017-Aug-15 16:00N 53°20' W 002°57'2 4.7
2017-Aug-15 15:30N 53°22' W 002°59'5 9.1
2017-Aug-15 15:00N 53°26' W 003°01'0 0.0
2017-Aug-15 14:29N 53°26' W 003°01'0 0.1
2017-Aug-15 14:00N 53°26' W 003°01'1 1.4
2017-Aug-15 13:30N 53°26' W 002°60'0 0.0
2017-Aug-15 13:00N 53°26' W 002°60'0 0.0
2017-Aug-15 12:30N 53°26' W 002°60'0 0.0
2017-Aug-15 12:00N 53°26' W 002°60'0 0.0
2017-Aug-15 11:30N 53°26' W 002°60'0 0.0
2017-Aug-15 11:00N 53°26' W 002°60'0 0.0
2017-Aug-15 10:30N 53°26' W 002°60'0 0.0
2017-Aug-15 10:00N 53°26' W 002°60'0 0.0
2017-Aug-15 09:30N 53°26' W 002°60'0 0.0
2017-Aug-15 09:00N 53°26' W 002°60'0 0.0
2017-Aug-15 08:30N 53°26' W 002°60'0 0.0
2017-Aug-15 08:00N 53°26' W 002°60'0 0.0
2017-Aug-15 07:30N 53°26' W 002°60'0 0.0
2017-Aug-15 07:00N 53°26' W 002°60'0 0.0
2017-Aug-15 06:30N 53°26' W 002°60'0 0.0
2017-Aug-15 06:00N 53°26' W 002°60'0 0.0
2017-Aug-15 05:30N 53°26' W 002°60'2 3.9
2017-Aug-15 05:00N 53°28' W 003°02'1 1.1
2017-Aug-15 04:30N 53°27' W 003°01'1 1.6
2017-Aug-15 04:00N 53°26' W 003°01'0 0.9
2017-Aug-15 03:30N 53°27' W 003°01'0 0.4
2017-Aug-15 03:01N 53°27' W 003°01'1 1.2
2017-Aug-15 02:30N 53°26' W 003°01'0 1.0
2017-Aug-15 02:01N 53°26' W 003°01'0 0.3
2017-Aug-15 01:30N 53°26' W 003°01'0 0.7
2017-Aug-15 01:00N 53°27' W 003°01'1 2.2
2017-Aug-15 00:31N 53°26' W 002°60'0 0.0
2017-Aug-15 00:00N 53°26' W 002°60'0 0.0
2017-Aug-14 23:30N 53°26' W 002°60'0 0.0
2017-Aug-14 23:00N 53°26' W 002°60'0 0.0
2017-Aug-14 22:30N 53°26' W 002°60'0 0.0
2017-Aug-14 22:00N 53°26' W 002°60'0 0.0
2017-Aug-14 21:30N 53°26' W 002°60'0 0.0
2017-Aug-14 21:01N 53°26' W 002°60'0 0.0
2017-Aug-14 20:30N 53°26' W 002°60'0 0.0
2017-Aug-14 20:00N 53°26' W 002°60'0 0.0
2017-Aug-14 19:30N 53°26' W 002°60'0 0.0
2017-Aug-14 19:00N 53°26' W 002°60'0 0.0
2017-Aug-14 18:30N 53°26' W 002°60'0 0.0
2017-Aug-14 18:00N 53°26' W 002°60'0 0.0
2017-Aug-14 17:30N 53°26' W 002°60'0 0.0
2017-Aug-14 17:00N 53°26' W 002°60'0 0.0
2017-Aug-14 16:30N 53°26' W 002°60'0 0.0
2017-Aug-14 16:00N 53°26' W 002°60'0 0.0
2017-Aug-14 15:30N 53°26' W 002°60'0 0.0
2017-Aug-14 15:00N 53°26' W 002°60'0 0.0
2017-Aug-14 14:30N 53°26' W 002°60'0 0.0
2017-Aug-14 14:00N 53°26' W 002°60'0 0.0
2017-Aug-14 13:30N 53°26' W 002°60'0 0.0
2017-Aug-14 13:00N 53°26' W 002°60'0 0.0
2017-Aug-14 12:30N 53°26' W 002°60'0 0.0
2017-Aug-14 12:00N 53°26' W 002°60'0 0.0
2017-Aug-14 11:30N 53°26' W 002°60'0 0.0
2017-Aug-14 11:00N 53°26' W 002°60'0 0.0
2017-Aug-14 10:30N 53°26' W 002°60'0 0.0
2017-Aug-14 10:00N 53°26' W 002°60'0 0.0
2017-Aug-14 09:30N 53°26' W 002°60'0 0.0
2017-Aug-14 09:00N 53°26' W 002°60'0 0.0
2017-Aug-14 08:30N 53°26' W 002°60'0 0.0
2017-Aug-14 08:00N 53°26' W 002°60'0 0.0
2017-Aug-14 07:30N 53°26' W 002°60'0 0.0
2017-Aug-14 07:00N 53°26' W 002°60'0 0.0
2017-Aug-14 06:30N 53°26' W 002°60'0 0.0
2017-Aug-14 06:00N 53°26' W 002°60'0 0.0
2017-Aug-14 05:30N 53°26' W 002°60'0 0.0
2017-Aug-14 05:00N 53°26' W 002°60'0 0.0
2017-Aug-14 04:30N 53°26' W 002°60'0 0.0
2017-Aug-14 04:00N 53°26' W 002°60'1 2.1
2017-Aug-14 03:30N 53°27' W 003°00'0 0.5
2017-Aug-14 03:00N 53°27' W 003°01'0 0.6
2017-Aug-14 02:30N 53°26' W 003°01'0 0.1
2017-Aug-14 02:00N 53°26' W 003°01'0 0.3
2017-Aug-14 01:30N 53°26' W 003°01'1 1.1
2017-Aug-14 01:00N 53°26' W 003°01'2 4.1
2017-Aug-14 00:30N 53°28' W 003°04'2 3.6
2017-Aug-14 00:00N 53°27' W 003°01'0 0.1
2017-Aug-13 23:30N 53°27' W 003°01'0 0.0
2017-Aug-13 23:00N 53°27' W 003°01'1 1.3
2017-Aug-13 22:30N 53°26' W 003°01'1 1.7
2017-Aug-13 21:59N 53°27' W 003°01'0 0.0
2017-Aug-13 21:30N 53°27' W 003°01'1 2.9
2017-Aug-13 21:00N 53°26' W 002°60'0 0.0
2017-Aug-13 20:30N 53°26' W 002°60'0 0.0
2017-Aug-13 20:00N 53°26' W 002°60'0 0.0
2017-Aug-13 19:30N 53°26' W 002°60'0 0.0
2017-Aug-13 19:00N 53°26' W 002°60'0 0.0
2017-Aug-13 18:30N 53°26' W 002°60'0 0.0
2017-Aug-13 18:00N 53°26' W 002°60'0 0.0
2017-Aug-13 17:30N 53°26' W 002°60'0 0.0
2017-Aug-13 17:00N 53°26' W 002°60'0 0.0
2017-Aug-13 16:30N 53°26' W 002°60'1 1.5
2017-Aug-13 16:00N 53°27' W 003°00'1 2.2
2017-Aug-13 15:30N 53°28' W 003°01'1 1.2
2017-Aug-13 15:00N 53°27' W 003°01'0 0.6
2017-Aug-13 14:30N 53°27' W 003°01'1 1.3
2017-Aug-13 14:00N 53°27' W 003°02'2 4.4
2017-Aug-13 13:30N 53°29' W 003°04'2 4.4
2017-Aug-13 13:00N 53°27' W 003°02'1 2.1
2017-Aug-13 12:30N 53°26' W 003°01'0 0.0
2017-Aug-13 12:00N 53°26' W 003°01'0 0.0
2017-Aug-13 11:30N 53°26' W 003°01'1 1.6
2017-Aug-13 11:00N 53°27' W 003°01'0 0.3
2017-Aug-13 10:30N 53°27' W 003°01'1 3.0
2017-Aug-13 10:00N 53°26' W 002°60'0 0.0
2017-Aug-13 09:30N 53°26' W 002°60'0 0.0
2017-Aug-13 09:00N 53°26' W 002°60'0 0.0
2017-Aug-13 08:30N 53°26' W 002°60'0 0.0
2017-Aug-13 08:00N 53°26' W 002°60'0 0.0
2017-Aug-13 07:30N 53°26' W 002°60'0 0.0
2017-Aug-13 07:00N 53°26' W 002°60'0 0.0
2017-Aug-13 06:30N 53°26' W 002°60'0 0.0
2017-Aug-13 06:00N 53°26' W 002°60'0 0.0
2017-Aug-13 05:30N 53°26' W 002°60'0 0.0
2017-Aug-13 05:00N 53°26' W 002°60'0 0.0
2017-Aug-13 04:30N 53°26' W 002°60'0 0.0
2017-Aug-13 04:00N 53°26' W 002°60'0 0.0
2017-Aug-13 03:30N 53°26' W 002°60'0 0.0
2017-Aug-13 03:00N 53°26' W 002°60'0 0.0
2017-Aug-13 02:30N 53°26' W 002°60'0 0.0
2017-Aug-13 02:00N 53°26' W 002°60'0 0.0
2017-Aug-13 01:30N 53°26' W 002°60'0 0.0
2017-Aug-13 01:00N 53°26' W 002°60'0 0.0
2017-Aug-13 00:30N 53°26' W 002°60'0 0.0
2017-Aug-13 00:00N 53°26' W 002°60'0 0.0
2017-Aug-12 23:30N 53°26' W 002°60'0 0.0
2017-Aug-12 23:00N 53°26' W 002°60'0 0.0
2017-Aug-12 22:30N 53°26' W 002°60'0 0.0
2017-Aug-12 22:00N 53°26' W 002°60'0 0.0
2017-Aug-12 21:30N 53°26' W 002°60'0 0.0
2017-Aug-12 21:00N 53°26' W 002°60'0 0.0
2017-Aug-12 20:30N 53°26' W 002°60'0 0.0
2017-Aug-12 20:00N 53°26' W 002°60'0 0.0
2017-Aug-12 19:30N 53°26' W 002°60'0 0.0
2017-Aug-12 19:00N 53°26' W 002°60'0 0.0
2017-Aug-12 18:30N 53°26' W 002°60'0 0.0
2017-Aug-12 18:00N 53°26' W 002°60'0 0.0
2017-Aug-12 17:30N 53°26' W 002°60'0 0.0
2017-Aug-12 17:00N 53°26' W 002°60'0 0.0
2017-Aug-12 16:30N 53°26' W 002°60'0 0.0
2017-Aug-12 16:00N 53°26' W 002°60'0 0.0
2017-Aug-12 15:30N 53°26' W 002°60'0 0.0
2017-Aug-12 15:00N 53°26' W 002°60'0 0.0
2017-Aug-12 14:30N 53°26' W 002°60'0 0.0
2017-Aug-12 14:00N 53°26' W 002°60'0 0.0
2017-Aug-12 13:30N 53°26' W 002°60'0 0.0
2017-Aug-12 13:00N 53°26' W 002°60'1 2.5
2017-Aug-12 12:30N 53°27' W 003°01'1 1.2
2017-Aug-12 12:00N 53°28' W 003°01'1 1.1
2017-Aug-12 11:30N 53°27' W 003°01'0 0.3
2017-Aug-12 11:00N 53°27' W 003°01'0 0.2
2017-Aug-12 10:30N 53°27' W 003°01'0 0.5
2017-Aug-12 10:00N 53°27' W 003°01'2 3.1
2017-Aug-12 09:30N 53°26' W 003°00'0 0.2
2017-Aug-12 09:00N 53°26' W 002°60'0 0.0
2017-Aug-12 08:30N 53°26' W 002°60'0 0.0
2017-Aug-12 08:01N 53°26' W 002°60'0 0.0
2017-Aug-12 07:30N 53°26' W 002°60'0 0.0
2017-Aug-12 07:00N 53°26' W 002°60'0 0.0
2017-Aug-12 06:31N 53°26' W 002°60'0 0.0
2017-Aug-12 06:00N 53°26' W 002°60'0 0.0
2017-Aug-12 05:30N 53°26' W 002°60'0 0.0
2017-Aug-12 05:00N 53°26' W 002°60'0 0.0
2017-Aug-12 04:30N 53°26' W 002°60'0 0.0
2017-Aug-12 04:00N 53°26' W 002°60'0 0.0
2017-Aug-12 03:31N 53°26' W 002°60'0 0.0
2017-Aug-12 03:00N 53°26' W 002°60'0 0.0
2017-Aug-12 02:30N 53°26' W 002°60'0 0.0
2017-Aug-12 02:00N 53°26' W 002°60'0 0.0
2017-Aug-12 01:30N 53°26' W 002°60'0 0.0
2017-Aug-12 01:00N 53°26' W 002°60'2 3.4
2017-Aug-12 00:30N 53°27' W 003°01'0 0.5
2017-Aug-12 00:00N 53°28' W 003°01'1 1.3
2017-Aug-11 23:30N 53°27' W 003°01'0 0.3
2017-Aug-11 23:00N 53°27' W 003°01'1 1.9
2017-Aug-11 22:31N 53°27' W 003°02'2 3.3
2017-Aug-11 22:00N 53°29' W 003°04'1 2.9
2017-Aug-11 21:30N 53°27' W 003°02'1 1.8
2017-Aug-11 21:00N 53°27' W 003°01'0 0.0
2017-Aug-11 20:30N 53°27' W 003°01'1 2.7
2017-Aug-11 20:00N 53°26' W 002°60'0 0.0
2017-Aug-11 19:30N 53°26' W 002°60'0 0.0
2017-Aug-11 19:00N 53°26' W 002°60'0 0.0
2017-Aug-11 18:30N 53°26' W 002°60'0 0.0
2017-Aug-11 18:00N 53°26' W 002°60'0 0.0
2017-Aug-11 17:30N 53°26' W 002°60'0 0.0
2017-Aug-11 17:00N 53°26' W 002°60'0 0.0
2017-Aug-11 16:30N 53°26' W 002°60'0 0.0
2017-Aug-11 16:00N 53°26' W 002°60'0 0.0
2017-Aug-11 15:30N 53°26' W 002°60'  
Track history (hours):
 
Tides and Currents Weather Stations Pressure Air Temp Water Temp Dewpoint Dewpoint Depression Visibility Wind Speed Wind Dir Waves Ship Positions

Smit Barbados

Last reported at 2017-Aug-21 15:30 UTC. Time now 2017-Aug-21 15:46 UTC.
Position N 53°26' W 002°60'.

Length 30 m; draft 4.8 m.

Type: Tug. MMSI: 235055303.

Date/timePositionNaut miles runAvg speedWind from/ knotsBaromVisibWave heightAir tempDewpointWater temp
2017-Aug-21 15:30N 53°26' W 002°60'0 0.0
2017-Aug-21 15:01N 53°26' W 002°60'0 0.0
2017-Aug-21 14:30N 53°26' W 002°60'0 0.0
2017-Aug-21 14:01N 53°26' W 002°60'0 0.0
2017-Aug-21 13:30N 53°26' W 002°60'0 0.0
2017-Aug-21 13:00N 53°26' W 002°60'0 0.0
2017-Aug-21 12:30N 53°26' W 002°60'0 0.0
2017-Aug-21 12:00N 53°26' W 002°60'1 1.4
2017-Aug-21 11:30N 53°27' W 003°00'1 1.1
2017-Aug-21 11:00N 53°27' W 003°01'3 5.3
2017-Aug-21 10:30N 53°24' W 003°00'510.3
2017-Aug-21 10:00N 53°19' W 002°57'0 0.2
2017-Aug-21 09:30N 53°19' W 002°57'0 0.2
2017-Aug-21 09:00N 53°19' W 002°57'5 9.7
2017-Aug-21 08:30N 53°24' W 003°00'3 6.5
2017-Aug-21 08:00N 53°27' W 003°01'0 0.6
2017-Aug-21 07:30N 53°27' W 003°01'0 0.0
2017-Aug-21 07:00N 53°27' W 003°01'0 0.0
2017-Aug-21 06:30N 53°27' W 003°01'0 0.0
2017-Aug-21 06:00N 53°27' W 003°01'0 0.0
2017-Aug-21 05:30N 53°27' W 003°01'0 0.0
2017-Aug-21 05:00N 53°27' W 003°01'0 0.0
2017-Aug-21 04:30N 53°27' W 003°01'0 0.0
2017-Aug-21 04:00N 53°27' W 003°01'0 0.0
2017-Aug-21 03:30N 53°27' W 003°01'0 0.0
2017-Aug-21 03:00N 53°27' W 003°01'0 0.0
2017-Aug-21 02:30N 53°27' W 003°01'0 0.0
2017-Aug-21 02:00N 53°27' W 003°01'0 0.0
2017-Aug-21 01:30N 53°27' W 003°01'0 0.4
2017-Aug-21 01:00N 53°27' W 003°01'0 1.0
2017-Aug-21 00:30N 53°28' W 003°02'0 0.2
2017-Aug-21 00:00N 53°28' W 003°01'0 0.4
2017-Aug-20 23:30N 53°27' W 003°01'0 0.0
2017-Aug-20 23:00N 53°27' W 003°01'0 0.0
2017-Aug-20 22:30N 53°27' W 003°01'0 0.1
2017-Aug-20 22:00N 53°28' W 003°01'1 1.1
2017-Aug-20 21:30N 53°27' W 003°01'0 0.4
2017-Aug-20 21:00N 53°27' W 003°01'1 2.1
2017-Aug-20 20:30N 53°27' W 003°03'1 1.8
2017-Aug-20 20:00N 53°27' W 003°01'0 0.4
2017-Aug-20 19:30N 53°27' W 003°01'0 0.0
2017-Aug-20 19:00N 53°27' W 003°01'0 0.5
2017-Aug-20 18:30N 53°27' W 003°01'0 0.4
2017-Aug-20 18:00N 53°27' W 003°01'1 2.6
2017-Aug-20 17:30N 53°26' W 003°00'0 0.1
2017-Aug-20 17:00N 53°26' W 002°60'0 0.0
2017-Aug-20 16:30N 53°26' W 002°60'0 0.0
2017-Aug-20 16:00N 53°26' W 002°60'0 0.0
2017-Aug-20 15:30N 53°26' W 002°60'0 0.0
2017-Aug-20 15:00N 53°26' W 002°60'0 0.0
2017-Aug-20 14:30N 53°26' W 002°60'0 0.0
2017-Aug-20 14:00N 53°26' W 002°60'0 0.0
2017-Aug-20 13:30N 53°26' W 002°60'0 0.0
2017-Aug-20 13:00N 53°26' W 002°60'0 0.0
2017-Aug-20 12:30N 53°26' W 002°60'0 0.0
2017-Aug-20 12:00N 53°26' W 002°60'0 0.0
2017-Aug-20 11:30N 53°26' W 002°60'0 0.0
2017-Aug-20 11:00N 53°26' W 002°60'0 0.0
2017-Aug-20 10:30N 53°26' W 002°60'0 0.0
2017-Aug-20 10:00N 53°26' W 002°60'1 2.2
2017-Aug-20 09:31N 53°27' W 003°01'0 0.5
2017-Aug-20 09:00N 53°27' W 003°01'0 0.4
2017-Aug-20 08:30N 53°26' W 003°01'0 0.3
2017-Aug-20 08:00N 53°26' W 003°01'1 2.8
2017-Aug-20 07:30N 53°27' W 003°02'0 0.5
2017-Aug-20 07:00N 53°27' W 003°02'1 1.3
2017-Aug-20 06:30N 53°27' W 003°01'0 0.7
2017-Aug-20 06:01N 53°27' W 003°01'0 0.7
2017-Aug-20 05:30N 53°27' W 003°01'1 2.6
2017-Aug-20 05:00N 53°26' W 002°60'0 0.0
2017-Aug-20 04:30N 53°26' W 002°60'0 0.0
2017-Aug-20 04:00N 53°26' W 002°60'0 0.0
2017-Aug-20 03:30N 53°26' W 002°60'0 0.0
2017-Aug-20 03:00N 53°26' W 002°60'0 0.0
2017-Aug-20 02:30N 53°26' W 002°60'0 0.0
2017-Aug-20 02:00N 53°26' W 002°60'0 0.0
2017-Aug-20 01:30N 53°26' W 002°60'0 0.0
2017-Aug-20 01:00N 53°26' W 002°60'0 0.0
2017-Aug-20 00:30N 53°26' W 002°60'0 0.0
2017-Aug-20 00:00N 53°26' W 002°60'0 0.0
2017-Aug-19 23:30N 53°26' W 002°60'0 0.0
2017-Aug-19 23:00N 53°26' W 002°60'0 0.0
2017-Aug-19 22:30N 53°26' W 002°60'0 0.0
2017-Aug-19 22:00N 53°26' W 002°60'0 0.0
2017-Aug-19 21:30N 53°26' W 002°60'0 0.0
2017-Aug-19 20:59N 53°26' W 002°60'1 3.0
2017-Aug-19 20:30N 53°27' W 003°01'0 0.3
2017-Aug-19 20:00N 53°27' W 003°01'0 0.2
2017-Aug-19 19:30N 53°27' W 003°01'0 0.6
2017-Aug-19 19:00N 53°27' W 003°01'0 0.3
2017-Aug-19 18:31N 53°27' W 003°01'0 0.5
2017-Aug-19 18:00N 53°27' W 003°01'1 3.0
2017-Aug-19 17:30N 53°26' W 003°00'0 0.2
2017-Aug-19 17:00N 53°26' W 002°60'0 0.0
2017-Aug-19 16:30N 53°26' W 002°60'0 0.0
2017-Aug-19 16:00N 53°26' W 002°60'0 0.0
2017-Aug-19 15:30N 53°26' W 002°60'0 0.0
2017-Aug-19 15:00N 53°26' W 002°60'0 0.0
2017-Aug-19 14:00N 53°26' W 002°60'0 0.0
2017-Aug-19 13:30N 53°26' W 002°60'0 0.0
2017-Aug-19 13:00N 53°26' W 002°60'0 0.0
2017-Aug-19 12:30N 53°26' W 002°60'0 0.0
2017-Aug-19 12:00N 53°26' W 002°60'0 0.0
2017-Aug-19 11:30N 53°26' W 002°60'0 0.0
2017-Aug-19 11:00N 53°26' W 002°60'0 0.0
2017-Aug-19 10:30N 53°26' W 002°60'0 0.0
2017-Aug-19 10:00N 53°26' W 002°60'0 0.0
2017-Aug-19 09:30N 53°26' W 002°60'0 0.0
2017-Aug-19 09:00N 53°26' W 002°60'0 0.0
2017-Aug-19 08:30N 53°26' W 002°60'0 0.0
2017-Aug-19 08:00N 53°26' W 002°60'0 0.0
2017-Aug-19 07:30N 53°26' W 002°60'0 0.0
2017-Aug-19 07:00N 53°26' W 002°60'0 0.0
2017-Aug-19 06:30N 53°26' W 002°60'0 0.0
2017-Aug-19 06:00N 53°26' W 002°60'1 2.9
2017-Aug-19 05:30N 53°27' W 003°01'0 1.0
2017-Aug-19 05:00N 53°28' W 003°01'0 0.5
2017-Aug-19 04:30N 53°28' W 003°01'0 0.0
2017-Aug-19 04:00N 53°28' W 003°01'0 0.0
2017-Aug-19 03:30N 53°28' W 003°01'2 3.9
2017-Aug-19 03:00N 53°26' W 003°00'0 0.3
2017-Aug-19 02:30N 53°26' W 002°60'0 0.0
2017-Aug-19 02:00N 53°26' W 002°60'0 0.0
2017-Aug-19 01:30N 53°26' W 002°60'0 0.0
2017-Aug-19 01:00N 53°26' W 002°60'0 0.0
2017-Aug-19 00:30N 53°26' W 002°60'0 0.0
2017-Aug-19 00:00N 53°26' W 002°60'0 0.0
2017-Aug-18 23:30N 53°26' W 002°60'0 0.0
2017-Aug-18 23:00N 53°26' W 002°60'0 0.0
2017-Aug-18 22:30N 53°26' W 002°60'0 0.0
2017-Aug-18 22:00N 53°26' W 002°60'0 0.0
2017-Aug-18 21:30N 53°26' W 002°60'0 0.0
2017-Aug-18 21:00N 53°26' W 002°60'0 0.0
2017-Aug-18 20:30N 53°26' W 002°60'0 0.0
2017-Aug-18 20:00N 53°26' W 002°60'0 0.0
2017-Aug-18 19:30N 53°26' W 002°60'1 2.7
2017-Aug-18 19:00N 53°27' W 003°01'0 0.1
2017-Aug-18 18:30N 53°27' W 003°01'0 0.2
2017-Aug-18 18:01N 53°27' W 003°01'1 1.1
2017-Aug-18 17:31N 53°26' W 003°01'0 0.5
2017-Aug-18 17:00N 53°27' W 003°00'1 1.5
2017-Aug-18 16:30N 53°26' W 002°60'0 0.0
2017-Aug-18 16:00N 53°26' W 002°60'0 0.0
2017-Aug-18 15:30N 53°26' W 002°60'0 0.0
2017-Aug-18 15:00N 53°26' W 002°60'0 0.0
2017-Aug-18 14:00N 53°26' W 002°60'0 0.0
2017-Aug-18 13:30N 53°26' W 002°60'0 0.0
2017-Aug-18 13:00N 53°26' W 002°60'0 0.0
2017-Aug-18 12:30N 53°26' W 002°60'0 0.0
2017-Aug-18 11:59N 53°26' W 002°60'0 0.0
2017-Aug-18 11:30N 53°26' W 002°60'1 3.0
2017-Aug-18 11:01N 53°27' W 003°01'0 0.8
2017-Aug-18 10:30N 53°27' W 003°01'0 0.9
2017-Aug-18 10:00N 53°27' W 003°00'1 1.5
2017-Aug-18 09:31N 53°26' W 003°00'0 0.4
2017-Aug-18 09:00N 53°26' W 002°60'0 0.0
2017-Aug-18 08:30N 53°26' W 002°60'0 0.0
2017-Aug-18 08:00N 53°26' W 002°60'0 0.0
2017-Aug-18 07:30N 53°26' W 002°60'0 0.0
2017-Aug-18 06:59N 53°26' W 002°60'0 0.0
2017-Aug-18 06:30N 53°26' W 002°60'0 0.0
2017-Aug-18 06:00N 53°26' W 002°60'0 0.0
2017-Aug-18 05:31N 53°26' W 002°60'0 0.0
2017-Aug-18 05:00N 53°26' W 002°60'0 0.0
2017-Aug-18 04:30N 53°26' W 002°60'0 0.0
2017-Aug-18 04:00N 53°26' W 002°60'0 0.0
2017-Aug-18 03:30N 53°26' W 002°60'0 0.0
2017-Aug-18 03:00N 53°26' W 002°60'0 0.0
2017-Aug-18 02:30N 53°26' W 002°60'0 0.0
2017-Aug-18 02:00N 53°26' W 002°60'0 0.0
2017-Aug-18 01:30N 53°26' W 002°60'0 0.0
2017-Aug-18 01:00N 53°26' W 002°60'0 0.0
2017-Aug-18 00:30N 53°26' W 002°60'0 0.0
2017-Aug-18 00:00N 53°26' W 002°60'0 0.0
2017-Aug-17 23:30N 53°26' W 002°60'0 0.0
2017-Aug-17 23:00N 53°26' W 002°60'0 0.0
2017-Aug-17 22:30N 53°26' W 002°60'0 0.0
2017-Aug-17 22:00N 53°26' W 002°60'0 0.0
2017-Aug-17 21:30N 53°26' W 002°60'0 0.0
2017-Aug-17 21:00N 53°26' W 002°60'0 0.0
2017-Aug-17 20:30N 53°26' W 002°60'0 0.0
2017-Aug-17 20:01N 53°26' W 002°60'0 0.0
2017-Aug-17 19:30N 53°26' W 002°60'0 0.0
2017-Aug-17 19:00N 53°26' W 002°60'0 0.0
2017-Aug-17 18:30N 53°26' W 002°60'0 0.0
2017-Aug-17 18:01N 53°26' W 002°60'0 0.0
2017-Aug-17 17:30N 53°26' W 002°60'0 0.0
2017-Aug-17 17:00N 53°26' W 002°60'0 0.0
2017-Aug-17 16:30N 53°26' W 002°60'0 0.0
2017-Aug-17 16:00N 53°26' W 002°60'0 0.0
2017-Aug-17 15:30N 53°26' W 002°60'0 0.0
2017-Aug-17 15:00N 53°26' W 002°60'0 0.0
2017-Aug-17 14:30N 53°26' W 002°60'0 0.0
2017-Aug-17 14:00N 53°26' W 002°60'0 0.0
2017-Aug-17 13:30N 53°26' W 002°60'0 0.0
2017-Aug-17 13:00N 53°26' W 002°60'0 0.0
2017-Aug-17 12:30N 53°26' W 002°60'0 0.0
2017-Aug-17 12:00N 53°26' W 002°60'0 0.0
2017-Aug-17 11:30N 53°26' W 002°60'0 0.0
2017-Aug-17 11:00N 53°26' W 002°60'0 0.0
2017-Aug-17 10:30N 53°26' W 002°60'0 0.0
2017-Aug-17 10:00N 53°26' W 002°60'0 0.0
2017-Aug-17 09:30N 53°26' W 002°60'0 0.0
2017-Aug-17 09:00N 53°26' W 002°60'0 0.0
2017-Aug-17 08:30N 53°26' W 002°60'0 0.0
2017-Aug-17 08:00N 53°26' W 002°60'0 0.0
2017-Aug-17 07:30N 53°26' W 002°60'0 0.0
2017-Aug-17 07:00N 53°26' W 002°60'0 0.0
2017-Aug-17 06:30N 53°26' W 002°60'0 0.0
2017-Aug-17 06:01N 53°26' W 002°60'0 0.0
2017-Aug-17 05:30N 53°26' W 002°60'0 0.0
2017-Aug-17 05:00N 53°26' W 002°60'0 0.0
2017-Aug-17 04:30N 53°26' W 002°60'0 0.0
2017-Aug-17 04:00N 53°26' W 002°60'0 0.0
2017-Aug-17 03:30N 53°26' W 002°60'0 0.0
2017-Aug-17 03:00N 53°26' W 002°60'0 0.0
2017-Aug-17 02:30N 53°26' W 002°60'0 0.0
2017-Aug-17 02:00N 53°26' W 002°60'0 0.0
2017-Aug-17 01:30N 53°26' W 002°60'0 0.0
2017-Aug-17 01:00N 53°26' W 002°60'0 0.0
2017-Aug-17 00:30N 53°26' W 002°60'0 0.0
2017-Aug-17 00:00N 53°26' W 002°60'0 0.0
2017-Aug-16 23:30N 53°26' W 002°60'0 0.0
2017-Aug-16 23:01N 53°26' W 002°60'0 0.0
2017-Aug-16 22:30N 53°26' W 002°60'0 0.0
2017-Aug-16 22:00N 53°26' W 002°60'0 0.0
2017-Aug-16 21:31N 53°26' W 002°60'0 0.0
2017-Aug-16 21:00N 53°26' W 002°60'0 0.0
2017-Aug-16 20:30N 53°26' W 002°60'0 0.0
2017-Aug-16 20:00N 53°26' W 002°60'0 0.0
2017-Aug-16 19:31N 53°26' W 002°60'0 0.0
2017-Aug-16 19:00N 53°26' W 002°60'0 0.0
2017-Aug-16 18:30N 53°26' W 002°60'0 0.0
2017-Aug-16 18:00N 53°26' W 002°60'0 0.0
2017-Aug-16 17:30N 53°26' W 002°60'0 0.0
2017-Aug-16 17:00N 53°26' W 002°60'0 0.0
2017-Aug-16 16:30N 53°26' W 002°60'0 0.0
2017-Aug-16 16:00N 53°26' W 002°60'0 0.0
2017-Aug-16 15:30N 53°26' W 002°60'0 0.0
2017-Aug-16 15:01N 53°26' W 002°60'0 0.0
2017-Aug-16 14:30N 53°26' W 002°60'0 0.0
2017-Aug-16 14:00N 53°26' W 002°60'0 0.0
2017-Aug-16 13:30N 53°26' W 002°60'0 0.0
2017-Aug-16 13:00N 53°26' W 002°60'0 0.0
2017-Aug-16 12:30N 53°26' W 002°60'0 0.0
2017-Aug-16 12:00N 53°26' W 002°60'0 0.0
2017-Aug-16 11:30N 53°26' W 002°60'0 0.0
2017-Aug-16 11:00N 53°26' W 002°60'0 0.0
2017-Aug-16 10:30N 53°26' W 002°60'0 0.0
2017-Aug-16 10:00N 53°26' W 002°60'0 0.0
2017-Aug-16 09:30N 53°26' W 002°60'0 0.0
2017-Aug-16 09:00N 53°26' W 002°60'0 0.0
2017-Aug-16 08:30N 53°26' W 002°60'0 0.0
2017-Aug-16 08:00N 53°26' W 002°60'0 0.0
2017-Aug-16 07:30N 53°26' W 002°60'0 0.0
2017-Aug-16 07:00N 53°26' W 002°60'0 0.0
2017-Aug-16 06:30N 53°26' W 002°60'0 0.0
2017-Aug-16 06:00N 53°26' W 002°60'0 0.0
2017-Aug-16 05:30N 53°26' W 002°60'0 0.0
2017-Aug-16 05:00N 53°26' W 002°60'0 0.0
2017-Aug-16 04:30N 53°26' W 002°60'0 0.0
2017-Aug-16 04:00N 53°26' W 002°60'0 0.0
2017-Aug-16 03:30N 53°26' W 002°60'0 0.0
2017-Aug-16 03:00N 53°26' W 002°60'0 0.0
2017-Aug-16 02:30N 53°26' W 002°60'0 0.0
2017-Aug-16 02:00N 53°26' W 002°60'0 0.0
2017-Aug-16 01:30N 53°26' W 002°60'0 0.0
2017-Aug-16 01:00N 53°26' W 002°60'0 0.0
2017-Aug-16 00:30N 53°26' W 002°60'0 0.0
2017-Aug-16 00:00N 53°26' W 002°60'0 0.0
2017-Aug-15 23:30N 53°26' W 002°60'0 0.0
2017-Aug-15 23:00N 53°26' W 002°60'0 0.0
2017-Aug-15 22:30N 53°26' W 002°60'0 0.0
2017-Aug-15 22:00N 53°26' W 002°60'0 0.0
2017-Aug-15 21:30N 53°26' W 002°60'0 0.0
2017-Aug-15 21:00N 53°26' W 002°60'0 0.0
2017-Aug-15 20:30N 53°26' W 002°60'0 0.0
2017-Aug-15 20:00N 53°26' W 002°60'1 1.4
2017-Aug-15 19:30N 53°26' W 003°01'0 0.6
2017-Aug-15 19:00N 53°26' W 003°01'4 7.9
2017-Aug-15 18:30N 53°23' W 002°59'3 6.6
2017-Aug-15 18:00N 53°19' W 002°57'0 0.3
2017-Aug-15 17:29N 53°19' W 002°57'0 0.0
2017-Aug-15 17:00N 53°19' W 002°57'0 0.4
2017-Aug-15 16:30N 53°19' W 002°57'0 0.7
2017-Aug-15 16:00N 53°20' W 002°57'2 4.7
2017-Aug-15 15:30N 53°22' W 002°59'5 9.1
2017-Aug-15 15:00N 53°26' W 003°01'0 0.0
2017-Aug-15 14:29N 53°26' W 003°01'0 0.1
2017-Aug-15 14:00N 53°26' W 003°01'1 1.4
2017-Aug-15 13:30N 53°26' W 002°60'0 0.0
2017-Aug-15 13:00N 53°26' W 002°60'0 0.0
2017-Aug-15 12:30N 53°26' W 002°60'0 0.0
2017-Aug-15 12:00N 53°26' W 002°60'0 0.0
2017-Aug-15 11:30N 53°26' W 002°60'0 0.0
2017-Aug-15 11:00N 53°26' W 002°60'0 0.0
2017-Aug-15 10:30N 53°26' W 002°60'0 0.0
2017-Aug-15 10:00N 53°26' W 002°60'0 0.0
2017-Aug-15 09:30N 53°26' W 002°60'0 0.0
2017-Aug-15 09:00N 53°26' W 002°60'0 0.0
2017-Aug-15 08:30N 53°26' W 002°60'0 0.0
2017-Aug-15 08:00N 53°26' W 002°60'0 0.0
2017-Aug-15 07:30N 53°26' W 002°60'0 0.0
2017-Aug-15 07:00N 53°26' W 002°60'0 0.0
2017-Aug-15 06:30N 53°26' W 002°60'0 0.0
2017-Aug-15 06:00N 53°26' W 002°60'0 0.0
2017-Aug-15 05:30N 53°26' W 002°60'2 3.9
2017-Aug-15 05:00N 53°28' W 003°02'1 1.1
2017-Aug-15 04:30N 53°27' W 003°01'1 1.6
2017-Aug-15 04:00N 53°26' W 003°01'0 0.9
2017-Aug-15 03:30N 53°27' W 003°01'0 0.4
2017-Aug-15 03:01N 53°27' W 003°01'1 1.2
2017-Aug-15 02:30N 53°26' W 003°01'0 1.0
2017-Aug-15 02:01N 53°26' W 003°01'0 0.3
2017-Aug-15 01:30N 53°26' W 003°01'0 0.7
2017-Aug-15 01:00N 53°27' W 003°01'1 2.2
2017-Aug-15 00:31N 53°26' W 002°60'0 0.0
2017-Aug-15 00:00N 53°26' W 002°60'0 0.0
2017-Aug-14 23:30N 53°26' W 002°60'0 0.0
2017-Aug-14 23:00N 53°26' W 002°60'0 0.0
2017-Aug-14 22:30N 53°26' W 002°60'0 0.0
2017-Aug-14 22:00N 53°26' W 002°60'0 0.0
2017-Aug-14 21:30N 53°26' W 002°60'0 0.0
2017-Aug-14 21:01N 53°26' W 002°60'0 0.0
2017-Aug-14 20:30N 53°26' W 002°60'0 0.0
2017-Aug-14 20:00N 53°26' W 002°60'0 0.0
2017-Aug-14 19:30N 53°26' W 002°60'0 0.0
2017-Aug-14 19:00N 53°26' W 002°60'0 0.0
2017-Aug-14 18:30N 53°26' W 002°60'0 0.0
2017-Aug-14 18:00N 53°26' W 002°60'0 0.0
2017-Aug-14 17:30N 53°26' W 002°60'0 0.0
2017-Aug-14 17:00N 53°26' W 002°60'0 0.0
2017-Aug-14 16:30N 53°26' W 002°60'0 0.0
2017-Aug-14 16:00N 53°26' W 002°60'0 0.0
2017-Aug-14 15:30N 53°26' W 002°60'0 0.0
2017-Aug-14 15:00N 53°26' W 002°60'0 0.0
2017-Aug-14 14:30N 53°26' W 002°60'0 0.0
2017-Aug-14 14:00N 53°26' W 002°60'0 0.0
2017-Aug-14 13:30N 53°26' W 002°60'0 0.0
2017-Aug-14 13:00N 53°26' W 002°60'0 0.0
2017-Aug-14 12:30N 53°26' W 002°60'0 0.0
2017-Aug-14 12:00N 53°26' W 002°60'0 0.0
2017-Aug-14 11:30N 53°26' W 002°60'0 0.0
2017-Aug-14 11:00N 53°26' W 002°60'0 0.0
2017-Aug-14 10:30N 53°26' W 002°60'0 0.0
2017-Aug-14 10:00N 53°26' W 002°60'0 0.0
2017-Aug-14 09:30N 53°26' W 002°60'0 0.0
2017-Aug-14 09:00N 53°26' W 002°60'0 0.0
2017-Aug-14 08:30N 53°26' W 002°60'0 0.0
2017-Aug-14 08:00N 53°26' W 002°60'0 0.0
2017-Aug-14 07:30N 53°26' W 002°60'0 0.0
2017-Aug-14 07:00N 53°26' W 002°60'0 0.0
2017-Aug-14 06:30N 53°26' W 002°60'0 0.0
2017-Aug-14 06:00N 53°26' W 002°60'0 0.0
2017-Aug-14 05:30N 53°26' W 002°60'0 0.0
2017-Aug-14 05:00N 53°26' W 002°60'0 0.0
2017-Aug-14 04:30N 53°26' W 002°60'0 0.0
2017-Aug-14 04:00N 53°26' W 002°60'1 2.1
2017-Aug-14 03:30N 53°27' W 003°00'0 0.5
2017-Aug-14 03:00N 53°27' W 003°01'0 0.6
2017-Aug-14 02:30N 53°26' W 003°01'0 0.1
2017-Aug-14 02:00N 53°26' W 003°01'0 0.3
2017-Aug-14 01:30N 53°26' W 003°01'1 1.1
2017-Aug-14 01:00N 53°26' W 003°01'2 4.1
2017-Aug-14 00:30N 53°28' W 003°04'2 3.6
2017-Aug-14 00:00N 53°27' W 003°01'0 0.1
2017-Aug-13 23:30N 53°27' W 003°01'0 0.0
2017-Aug-13 23:00N 53°27' W 003°01'1 1.3
2017-Aug-13 22:30N 53°26' W 003°01'1 1.7
2017-Aug-13 21:59N 53°27' W 003°01'0 0.0
2017-Aug-13 21:30N 53°27' W 003°01'1 2.9
2017-Aug-13 21:00N 53°26' W 002°60'0 0.0
2017-Aug-13 20:30N 53°26' W 002°60'0 0.0
2017-Aug-13 20:00N 53°26' W 002°60'0 0.0
2017-Aug-13 19:30N 53°26' W 002°60'0 0.0
2017-Aug-13 19:00N 53°26' W 002°60'0 0.0
2017-Aug-13 18:30N 53°26' W 002°60'0 0.0
2017-Aug-13 18:00N 53°26' W 002°60'0 0.0
2017-Aug-13 17:30N 53°26' W 002°60'0 0.0
2017-Aug-13 17:00N 53°26' W 002°60'0 0.0
2017-Aug-13 16:30N 53°26' W 002°60'1 1.5
2017-Aug-13 16:00N 53°27' W 003°00'1 2.2
2017-Aug-13 15:30N 53°28' W 003°01'1 1.2
2017-Aug-13 15:00N 53°27' W 003°01'0 0.6
2017-Aug-13 14:30N 53°27' W 003°01'1 1.3
2017-Aug-13 14:00N 53°27' W 003°02'2 4.4
2017-Aug-13 13:30N 53°29' W 003°04'2 4.4
2017-Aug-13 13:00N 53°27' W 003°02'1 2.1
2017-Aug-13 12:30N 53°26' W 003°01'0 0.0
2017-Aug-13 12:00N 53°26' W 003°01'0 0.0
2017-Aug-13 11:30N 53°26' W 003°01'1 1.6
2017-Aug-13 11:00N 53°27' W 003°01'0 0.3
2017-Aug-13 10:30N 53°27' W 003°01'1 3.0
2017-Aug-13 10:00N 53°26' W 002°60'0 0.0
2017-Aug-13 09:30N 53°26' W 002°60'0 0.0
2017-Aug-13 09:00N 53°26' W 002°60'0 0.0
2017-Aug-13 08:30N 53°26' W 002°60'0 0.0
2017-Aug-13 08:00N 53°26' W 002°60'0 0.0
2017-Aug-13 07:30N 53°26' W 002°60'0 0.0
2017-Aug-13 07:00N 53°26' W 002°60'0 0.0
2017-Aug-13 06:30N 53°26' W 002°60'0 0.0
2017-Aug-13 06:00N 53°26' W 002°60'0 0.0
2017-Aug-13 05:30N 53°26' W 002°60'0 0.0
2017-Aug-13 05:00N 53°26' W 002°60'0 0.0
2017-Aug-13 04:30N 53°26' W 002°60'0 0.0
2017-Aug-13 04:00N 53°26' W 002°60'0 0.0
2017-Aug-13 03:30N 53°26' W 002°60'0 0.0
2017-Aug-13 03:00N 53°26' W 002°60'0 0.0
2017-Aug-13 02:30N 53°26' W 002°60'0 0.0
2017-Aug-13 02:00N 53°26' W 002°60'0 0.0
2017-Aug-13 01:30N 53°26' W 002°60'0 0.0
2017-Aug-13 01:00N 53°26' W 002°60'0 0.0
2017-Aug-13 00:30N 53°26' W 002°60'0 0.0
2017-Aug-13 00:00N 53°26' W 002°60'0 0.0
2017-Aug-12 23:30N 53°26' W 002°60'0 0.0
2017-Aug-12 23:00N 53°26' W 002°60'0 0.0
2017-Aug-12 22:30N 53°26' W 002°60'0 0.0
2017-Aug-12 22:00N 53°26' W 002°60'0 0.0
2017-Aug-12 21:30N 53°26' W 002°60'0 0.0
2017-Aug-12 21:00N 53°26' W 002°60'0 0.0
2017-Aug-12 20:30N 53°26' W 002°60'0 0.0
2017-Aug-12 20:00N 53°26' W 002°60'0 0.0
2017-Aug-12 19:30N 53°26' W 002°60'0 0.0
2017-Aug-12 19:00N 53°26' W 002°60'0 0.0
2017-Aug-12 18:30N 53°26' W 002°60'0 0.0
2017-Aug-12 18:00N 53°26' W 002°60'0 0.0
2017-Aug-12 17:30N 53°26' W 002°60'0 0.0
2017-Aug-12 17:00N 53°26' W 002°60'0 0.0
2017-Aug-12 16:30N 53°26' W 002°60'0 0.0
2017-Aug-12 16:00N 53°26' W 002°60'0 0.0
2017-Aug-12 15:30N 53°26' W 002°60'0 0.0
2017-Aug-12 15:00N 53°26' W 002°60'0 0.0
2017-Aug-12 14:30N 53°26' W 002°60'0 0.0
2017-Aug-12 14:00N 53°26' W 002°60'0 0.0
2017-Aug-12 13:30N 53°26' W 002°60'0 0.0
2017-Aug-12 13:00N 53°26' W 002°60'1 2.5
2017-Aug-12 12:30N 53°27' W 003°01'1 1.2
2017-Aug-12 12:00N 53°28' W 003°01'1 1.1
2017-Aug-12 11:30N 53°27' W 003°01'0 0.3
2017-Aug-12 11:00N 53°27' W 003°01'0 0.2
2017-Aug-12 10:30N 53°27' W 003°01'0 0.5
2017-Aug-12 10:00N 53°27' W 003°01'2 3.1
2017-Aug-12 09:30N 53°26' W 003°00'0 0.2
2017-Aug-12 09:00N 53°26' W 002°60'0 0.0
2017-Aug-12 08:30N 53°26' W 002°60'0 0.0
2017-Aug-12 08:01N 53°26' W 002°60'0 0.0
2017-Aug-12 07:30N 53°26' W 002°60'0 0.0
2017-Aug-12 07:00N 53°26' W 002°60'0 0.0
2017-Aug-12 06:31N 53°26' W 002°60'0 0.0
2017-Aug-12 06:00N 53°26' W 002°60'0 0.0
2017-Aug-12 05:30N 53°26' W 002°60'0 0.0
2017-Aug-12 05:00N 53°26' W 002°60'0 0.0
2017-Aug-12 04:30N 53°26' W 002°60'0 0.0
2017-Aug-12 04:00N 53°26' W 002°60'0 0.0
2017-Aug-12 03:31N 53°26' W 002°60'0 0.0
2017-Aug-12 03:00N 53°26' W 002°60'0 0.0
2017-Aug-12 02:30N 53°26' W 002°60'0 0.0
2017-Aug-12 02:00N 53°26' W 002°60'0 0.0
2017-Aug-12 01:30N 53°26' W 002°60'0 0.0
2017-Aug-12 01:00N 53°26' W 002°60'2 3.4
2017-Aug-12 00:30N 53°27' W 003°01'0 0.5
2017-Aug-12 00:00N 53°28' W 003°01'1 1.3
2017-Aug-11 23:30N 53°27' W 003°01'0 0.3
2017-Aug-11 23:00N 53°27' W 003°01'1 1.9
2017-Aug-11 22:31N 53°27' W 003°02'2 3.3
2017-Aug-11 22:00N 53°29' W 003°04'1 2.9
2017-Aug-11 21:30N 53°27' W 003°02'1 1.8
2017-Aug-11 21:00N 53°27' W 003°01'0 0.0
2017-Aug-11 20:30N 53°27' W 003°01'1 2.7
2017-Aug-11 20:00N 53°26' W 002°60'0 0.0
2017-Aug-11 19:30N 53°26' W 002°60'0 0.0
2017-Aug-11 19:00N 53°26' W 002°60'0 0.0
2017-Aug-11 18:30N 53°26' W 002°60'0 0.0
2017-Aug-11 18:00N 53°26' W 002°60'0 0.0
2017-Aug-11 17:30N 53°26' W 002°60'0 0.0
2017-Aug-11 17:00N 53°26' W 002°60'0 0.0
2017-Aug-11 16:30N 53°26' W 002°60'0 0.0
2017-Aug-11 16:00N 53°26' W 002°60'0 0.0
2017-Aug-11 15:30N 53°26' W 002°60'  

Dump ship's entire track history